Sunday, May 27, 2018, 5:54 PM GMT
Back to Local

CYQB, Quebec, Que

Location: , , Canada Lat: 46.8
Local Time: 5:54 PM GMT (17:54 GMT) Lon: -71.383
Time Zone: GMT Elev: 229 ft

Show me the last for .
Show Decoded

2018-05-27 17:00 METAR CYQB 271700Z 06012KT 30SM BKN060 BKN210 19/07 A3013 RMK SC5CI2 SLP205
                 DENSITY ALT 600FT =
2018-05-27 16:00 METAR CYQB 271600Z 07013G22KT 30SM SCT060 BKN210 18/06 A3015 RMK SC3CI4 SLP212
                 DENSITY ALT 500FT =
2018-05-27 15:00 METAR CYQB 271500Z 06013KT 30SM FEW120 FEW220 BKN240 17/04 A3017 RMK AC1CI2CI4
                 AC TR SLP218 =
2018-05-27 14:00 METAR CYQB 271400Z 07013G21KT 30SM FEW140 FEW220 BKN240 16/05 A3018 RMK
                 AC1CC1CI4 AC TR SLP222 =
2018-05-27 13:00 METAR CYQB 271300Z 07015KT 30SM FEW140 FEW240 14/03 A3017 RMK AC1CI2 AC TR
                 SLP221 =
2018-05-27 12:00 METAR CYQB 271200Z 07013G21KT 30SM FEW140 SCT240 13/01 A3018 RMK AC1CI3 SLP223 =
2018-05-27 11:00 METAR CYQB 271100Z 06014KT 30SM FEW040 FEW140 SCT240 12/01 A3017 RMK SC1AC1CI3
                 SC TR AC TR SLP220 =
2018-05-27 10:00 METAR CYQB 271000Z 06011KT 30SM FEW140 SCT240 10/01 A3018 RMK AC1CI4 AC TR
                 SLP223 =
2018-05-27 09:00 METAR CYQB 270900Z 06011KT 30SM FEW220 09/02 A3018 RMK CI1 SLP223 =
2018-05-27 08:00 METAR CYQB 270800Z 06010KT 15SM SKC 10/02 A3016 RMK SLP216 =
2018-05-27 07:00 METAR CYQB 270700Z 08009KT 15SM SKC 11/01 A3015 RMK SLP213 =
2018-05-27 06:00 METAR CYQB 270600Z 07005KT 15SM SKC 09/01 A3013 RMK SLP205 =
2018-05-27 05:00 METAR CYQB 270500Z 07008KT 15SM FEW270 11/01 A3012 RMK CI1 CI TR SLP203 =
2018-05-27 04:00 METAR CYQB 270400Z 07014KT 15SM FEW270 12/01 A3010 RMK CI2 SLP195 =
2018-05-27 03:00 METAR CYQB 270300Z 07011KT 15SM SCT270 13/01 A3008 RMK CI3 SLP189 =
2018-05-27 02:00 METAR CYQB 270200Z 07010KT 15SM FEW240 13/03 A3006 RMK CI2 SLP182 =
2018-05-27 01:00 METAR CYQB 270100Z 07011G17KT 15SM SCT270 14/02 A3003 RMK CI3 SLP171 =
2018-05-27 00:00 METAR CYQB 270000Z 08011KT 30SM SCT270 15/03 A3000 RMK CI3 SLP162 DENSITY ALT
                 300FT =
2018-05-26 23:00 METAR CYQB 262300Z 07011KT 30SM FEW210 SCT270 17/04 A2996 RMK CI1CI4 CI TR
                 SLP150 DENSITY ALT 500FT =
2018-05-26 22:00 METAR CYQB 262200Z 08012G17KT 30SM FEW210 BKN270 17/04 A2994 RMK CI1CI6 CI TR
                 SLP143 DENSITY ALT 600FT =
2018-05-26 21:00 METAR CYQB 262100Z 07011G16KT 30SM SCT210 BKN270 18/05 A2992 RMK CI3CI3 SLP133
                 DENSITY ALT 600FT =
2018-05-26 20:00 METAR CYQB 262000Z 07013KT 30SM FEW040 SCT270 BKN300 18/04 A2989 RMK CU1CI3CI3
                 CU TR SLP124 DENSITY ALT 800FT =
2018-05-26 19:00 METAR CYQB 261900Z 10009KT 060V120 30SM FEW035 SCT270 BKN300 18/05 A2987 RMK
                 CU1CI3CI2 CU TR SLP118 DENSITY ALT 800FT =
2018-05-26 18:00 METAR CYQB 261800Z 05004KT 040V110 30SM FEW032 SCT270 SCT300 16/07 A2985 RMK
                 CU1CI3CI1 CU TR SLP111 DENSITY ALT 600FT =

Support USWX by starting your Amazon purchase here.